Time,TemperatureF,DewpointF,PressureIn,WindDirection,WindDirectionDegrees,WindSpeedMPH,WindSpeedGustMPH,Humidity,HourlyPrecipIn,Conditions,Clouds,dailyrainin,SoftwareType,DateUTC
2013-02-05 00:04:00,24.2,12.3,29.89,NE,55,0.0,0.0,60,0.00,,OVC095,-99.99,VWS V12.07,2013-02-05 05:04:00,
2013-02-05 00:05:00,24.2,12.3,29.89,NE,55,0.0,0.0,60,0.00,,OVC095,-99.99,VWS V12.07,2013-02-05 05:05:00,
2013-02-05 00:12:00,24.1,13.7,29.89,NE,55,0.0,0.0,64,0.00,,OVC095,-99.99,VWS V12.07,2013-02-05 05:12:00,
2013-02-05 00:22:00,23.9,12.8,29.89,NE,55,0.0,0.0,62,0.00,,OVC095,-99.99,VWS V12.07,2013-02-05 05:22:00,
2013-02-05 00:33:00,23.8,13.1,29.89,NE,55,0.0,0.0,63,0.00,,OVC095,-99.99,VWS V12.07,2013-02-05 05:33:00,
2013-02-05 00:42:00,23.8,13.4,29.89,NE,55,0.0,0.0,64,0.00,,OVC095,-99.99,VWS V12.07,2013-02-05 05:42:00,
2013-02-05 00:52:00,23.6,12.9,29.88,NE,55,0.0,0.0,63,0.00,,OVC095,-99.99,VWS V12.07,2013-02-05 05:52:00,
2013-02-05 01:04:00,23.6,13.9,29.88,NE,55,0.0,0.0,66,0.00,,OVC095,-99.99,VWS V12.07,2013-02-05 06:04:00,
2013-02-05 01:12:00,23.6,13.9,29.88,NE,55,0.0,0.0,66,0.00,,OVC095,-99.99,VWS V12.07,2013-02-05 06:12:00,
2013-02-05 01:22:00,23.6,14.3,29.88,NE,55,0.0,0.0,67,0.00,,OVC095,-99.99,VWS V12.07,2013-02-05 06:22:00,
2013-02-05 01:34:00,23.6,14.3,29.87,NE,55,0.0,0.0,67,0.00,,OVC095,-99.99,VWS V12.07,2013-02-05 06:34:00,
2013-02-05 01:42:00,23.6,13.2,29.87,NE,55,0.0,0.0,64,0.00,,OVC095,-99.99,VWS V12.07,2013-02-05 06:42:00,
2013-02-05 01:52:00,23.6,13.2,29.87,NE,55,0.0,0.0,64,0.00,,OVC095,-99.99,VWS V12.07,2013-02-05 06:52:00,
2013-02-05 02:04:00,23.3,12.6,29.88,NE,55,0.0,1.0,63,0.00,,OVC095,-99.99,VWS V12.07,2013-02-05 07:04:00,
2013-02-05 02:12:00,22.9,12.6,29.88,NE,55,0.0,1.0,64,0.00,,OVC095,-99.99,VWS V12.07,2013-02-05 07:12:00,
2013-02-05 02:22:00,22.5,12.5,29.89,NE,55,0.0,1.0,65,0.00,,OVC095,-99.99,VWS V12.07,2013-02-05 07:22:00,
2013-02-05 02:33:00,22.2,12.2,29.89,NE,55,0.0,1.0,65,0.00,,OVC095,-99.99,VWS V12.07,2013-02-05 07:33:00,
2013-02-05 02:42:00,21.8,11.9,29.89,NNW,347,0.0,2.0,65,0.00,,OVC095,-99.99,VWS V12.07,2013-02-05 07:42:00,
2013-02-05 02:52:00,21.6,11.7,29.89,NNW,347,0.0,2.0,65,0.00,,OVC095,-99.99,VWS V12.07,2013-02-05 07:52:00,
2013-02-05 03:04:00,21.4,11.5,29.89,NNW,347,0.0,0.0,65,0.00,,OVC095,-99.99,VWS V12.07,2013-02-05 08:04:00,
2013-02-05 03:12:00,21.4,11.8,29.89,WNW,288,0.0,2.0,66,0.00,,OVC095,-99.99,VWS V12.07,2013-02-05 08:12:00,
2013-02-05 03:22:00,21.3,12.1,29.88,WNW,288,0.0,2.0,67,0.00,,OVC095,-99.99,VWS V12.07,2013-02-05 08:22:00,
2013-02-05 03:33:00,21.1,11.9,29.88,WNW,288,0.0,0.0,67,0.00,,OVC095,-99.99,VWS V12.07,2013-02-05 08:33:00,
2013-02-05 03:42:00,21.1,11.9,29.88,WNW,288,0.0,1.0,67,0.00,,OVC095,-99.99,VWS V12.07,2013-02-05 08:42:00,
2013-02-05 03:52:00,21.0,12.1,29.88,WNW,288,0.0,1.0,68,0.00,,OVC095,-99.99,VWS V12.07,2013-02-05 08:52:00,
2013-02-05 04:03:00,20.8,12.2,29.89,West,280,1.0,1.0,69,0.00,,OVC095,-99.99,VWS V12.07,2013-02-05 09:03:00,
2013-02-05 04:12:00,20.6,12.4,29.89,West,280,1.0,1.0,70,0.00,,OVC095,-99.99,VWS V12.07,2013-02-05 09:12:00,
2013-02-05 04:22:00,20.6,12.4,29.88,West,280,0.0,1.0,70,0.00,,OVC095,-99.99,VWS V12.07,2013-02-05 09:22:00,
2013-02-05 04:33:00,20.5,12.6,29.89,West,280,0.0,0.0,71,0.00,,OVC095,-99.99,VWS V12.07,2013-02-05 09:33:00,
2013-02-05 04:42:00,20.5,12.9,29.89,West,280,0.0,1.0,72,0.00,,OVC095,-99.99,VWS V12.07,2013-02-05 09:42:00,
2013-02-05 04:52:00,20.3,12.7,29.89,West,280,0.0,1.0,72,0.00,,OVC095,-99.99,VWS V12.07,2013-02-05 09:52:00,
2013-02-05 05:04:00,20.3,13.0,29.89,West,280,0.0,1.0,73,0.00,,OVC095,-99.99,VWS V12.07,2013-02-05 10:04:00,
2013-02-05 05:12:00,20.3,13.4,29.89,SW,232,0.0,1.0,74,0.00,,OVC095,-99.99,VWS V12.07,2013-02-05 10:12:00,
2013-02-05 05:22:00,20.2,13.2,29.88,SW,232,0.0,1.0,74,0.00,,OVC095,-99.99,VWS V12.07,2013-02-05 10:22:00,
2013-02-05 05:34:00,20.2,13.2,29.90,SW,230,0.0,2.0,74,0.00,,OVC095,-99.99,VWS V12.07,2013-02-05 10:34:00,
2013-02-05 05:42:00,20.2,13.6,29.90,SW,230,0.0,2.0,75,0.00,,OVC095,-99.99,VWS V12.07,2013-02-05 10:42:00,
2013-02-05 05:52:00,20.0,13.7,29.91,ESE,121,1.0,2.0,76,0.00,,OVC095,-99.99,VWS V12.07,2013-02-05 10:52:00,
2013-02-05 06:03:00,20.0,14.0,29.89,SSE,157,0.0,0.0,77,0.00,,OVC095,-99.99,VWS V12.07,2013-02-05 11:03:00,
2013-02-05 06:12:00,20.0,14.0,29.89,SSE,162,0.0,1.0,77,0.00,,OVC095,-99.99,VWS V12.07,2013-02-05 11:12:00,
2013-02-05 06:22:00,19.9,13.9,29.90,SSE,162,0.0,1.0,77,0.00,,OVC095,-99.99,VWS V12.07,2013-02-05 11:22:00,
2013-02-05 06:33:00,19.9,13.9,29.91,SSW,203,0.0,0.0,77,0.00,,OVC095,-99.99,VWS V12.07,2013-02-05 11:33:00,
2013-02-05 06:42:00,19.9,13.9,29.91,NNW,347,0.0,2.0,77,0.00,,OVC095,-99.99,VWS V12.07,2013-02-05 11:42:00,
2013-02-05 06:52:00,19.9,13.9,29.91,NNW,347,1.0,2.0,77,0.00,,OVC095,-99.99,VWS V12.07,2013-02-05 11:52:00,
2013-02-05 07:04:00,19.9,13.6,29.92,NNW,347,0.0,1.0,76,0.00,,OVC095,-99.99,VWS V12.07,2013-02-05 12:04:00,
2013-02-05 07:12:00,19.9,13.6,29.92,WNW,294,0.0,2.0,76,0.00,,OVC095,-99.99,VWS V12.07,2013-02-05 12:12:00,
2013-02-05 07:22:00,19.9,13.6,29.92,WNW,294,0.0,2.0,76,0.00,,OVC095,-99.99,VWS V12.07,2013-02-05 12:22:00,
2013-02-05 07:33:00,19.9,13.6,29.93,WNW,294,0.0,0.0,76,0.00,,OVC095,-99.99,VWS V12.07,2013-02-05 12:33:00,
2013-02-05 07:42:00,19.9,13.9,29.93,WNW,294,0.0,1.0,77,0.00,,OVC095,-99.99,VWS V12.07,2013-02-05 12:42:00,
2013-02-05 07:52:00,20.0,14.0,29.93,WNW,294,0.0,1.0,77,0.00,,OVC095,-99.99,VWS V12.07,2013-02-05 12:52:00,
2013-02-05 08:03:00,20.0,14.0,29.94,WNW,294,0.0,0.0,77,0.00,,OVC095,-99.99,VWS V12.07,2013-02-05 13:03:00,
2013-02-05 08:12:00,20.2,13.9,29.94,WNW,294,0.0,0.0,76,0.00,,OVC095,-99.99,VWS V12.07,2013-02-05 13:12:00,
2013-02-05 08:22:00,20.5,13.9,29.94,WNW,294,0.0,1.0,75,0.00,,OVC095,-99.99,VWS V12.07,2013-02-05 13:22:00,
2013-02-05 08:33:00,20.8,13.8,29.94,WNW,294,1.0,2.0,74,0.00,,OVC095,-99.99,VWS V12.07,2013-02-05 13:33:00,
2013-02-05 08:42:00,21.0,13.7,29.94,WSW,251,0.0,2.0,73,0.00,,OVC095,-99.99,VWS V12.07,2013-02-05 13:42:00,
2013-02-05 08:52:00,21.4,13.8,29.94,SE,131,0.0,2.0,72,0.00,,OVC095,-99.99,VWS V12.07,2013-02-05 13:52:00,
2013-02-05 09:04:00,21.8,13.5,29.94,NW,313,1.0,2.0,70,0.00,,OVC095,-99.99,VWS V12.07,2013-02-05 14:04:00,
2013-02-05 09:12:00,22.1,13.5,29.94,WNW,301,0.0,2.0,69,0.00,,OVC095,-99.99,VWS V12.07,2013-02-05 14:12:00,
2013-02-05 09:22:00,22.2,13.3,29.94,WSW,254,3.0,3.0,68,0.00,,OVC095,-99.99,VWS V12.07,2013-02-05 14:22:00,
2013-02-05 09:33:00,22.2,13.3,29.94,WSW,253,0.0,0.0,68,0.00,,OVC095,-99.99,VWS V12.07,2013-02-05 14:33:00,
2013-02-05 09:42:00,22.2,13.3,29.94,WSW,253,0.0,0.0,68,0.00,,OVC095,-99.99,VWS V12.07,2013-02-05 14:42:00,
2013-02-05 09:52:00,22.2,13.3,29.94,WSW,253,0.0,0.0,68,0.00,,OVC095,-99.99,VWS V12.07,2013-02-05 14:52:00,
2013-02-05 10:03:00,22.2,13.3,29.95,WSW,253,0.0,0.0,68,0.00,,OVC095,-99.99,VWS V12.07,2013-02-05 15:03:00,
2013-02-05 10:12:00,22.2,13.3,29.95,WSW,253,0.0,0.0,68,0.00,,OVC095,-99.99,VWS V12.07,2013-02-05 15:12:00,
2013-02-05 10:22:00,22.2,13.3,29.95,WSW,253,0.0,0.0,68,0.00,,OVC095,-99.99,VWS V12.07,2013-02-05 15:22:00,
2013-02-05 10:33:00,22.2,13.3,29.95,WSW,253,0.0,0.0,68,0.00,,OVC095,-99.99,VWS V12.07,2013-02-05 15:33:00,
2013-02-05 10:42:00,22.2,13.3,29.95,WSW,253,0.0,0.0,68,0.00,,OVC095,-99.99,VWS V12.07,2013-02-05 15:42:00,
2013-02-05 10:52:00,22.2,13.3,29.94,WSW,253,0.0,0.0,68,0.00,,OVC095,-99.99,VWS V12.07,2013-02-05 15:52:00,
2013-02-05 11:04:00,22.2,13.3,29.93,WSW,253,0.0,0.0,68,0.00,,OVC095,-99.99,VWS V12.07,2013-02-05 16:04:00,
2013-02-05 11:12:00,22.2,13.3,29.93,WSW,253,0.0,0.0,68,0.00,,OVC095,-99.99,VWS V12.07,2013-02-05 16:12:00,
2013-02-05 11:22:00,22.2,13.3,29.93,WSW,253,0.0,0.0,68,0.00,,OVC095,-99.99,VWS V12.07,2013-02-05 16:22:00,
2013-02-05 11:33:00,27.2,14.4,29.93,NW,311,1.0,2.0,58,0.00,,OVC095,-99.99,VWS V12.07,2013-02-05 16:33:00,
2013-02-05 11:42:00,27.2,14.4,29.93,West,280,2.0,2.0,58,0.00,,OVC095,-99.99,VWS V12.07,2013-02-05 16:42:00,
2013-02-05 11:52:00,27.2,14.4,29.92,West,275,0.0,2.0,58,0.00,,OVC095,-99.99,VWS V12.07,2013-02-05 16:52:00,
2013-02-05 12:03:00,27.2,14.4,29.91,West,275,0.0,0.0,58,0.00,,OVC095,-99.99,VWS V12.07,2013-02-05 17:03:00,
2013-02-05 12:12:00,27.2,14.4,29.91,West,275,0.0,0.0,58,0.00,,OVC095,-99.99,VWS V12.07,2013-02-05 17:12:00,
2013-02-05 12:22:00,27.2,14.4,29.89,West,275,0.0,0.0,58,0.00,,OVC095,-99.99,VWS V12.07,2013-02-05 17:22:00,
2013-02-05 12:33:00,27.2,14.4,29.89,West,275,0.0,0.0,58,0.00,,OVC095,-99.99,VWS V12.07,2013-02-05 17:33:00,
2013-02-05 12:42:00,27.2,14.4,29.89,West,275,0.0,0.0,58,0.00,,OVC095,-99.99,VWS V12.07,2013-02-05 17:42:00,
2013-02-05 12:52:00,27.2,14.4,29.89,West,275,0.0,0.0,58,0.00,,OVC095,-99.99,VWS V12.07,2013-02-05 17:52:00,
2013-02-05 13:04:00,27.2,14.4,29.89,West,275,0.0,0.0,58,0.00,,OVC095,-99.99,VWS V12.07,2013-02-05 18:04:00,
2013-02-05 13:12:00,27.2,14.4,29.89,West,275,0.0,0.0,58,0.00,,OVC095,-99.99,VWS V12.07,2013-02-05 18:12:00,
2013-02-05 13:22:00,27.2,14.4,29.88,West,275,0.0,0.0,58,0.00,,OVC095,-99.99,VWS V12.07,2013-02-05 18:22:00,
2013-02-05 13:32:00,29.5,15.3,29.88,SSE,167,0.0,3.0,55,0.00,,OVC095,-99.99,VWS V12.07,2013-02-05 18:32:00,
2013-02-05 13:42:00,30.1,15.1,29.88,SSE,152,2.0,3.0,53,0.00,,OVC095,-99.99,VWS V12.07,2013-02-05 18:42:00,
2013-02-05 13:52:00,31.3,16.2,29.87,WSW,253,0.0,3.0,53,0.00,,OVC095,-99.99,VWS V12.07,2013-02-05 18:52:00,
2013-02-05 14:03:00,31.6,15.6,29.86,WSW,253,0.0,2.0,51,0.00,,OVC095,-99.99,VWS V12.07,2013-02-05 19:03:00,
2013-02-05 14:12:00,31.5,15.9,29.86,WSW,251,0.0,2.0,52,0.00,,OVC095,-99.99,VWS V12.07,2013-02-05 19:12:00,
2013-02-05 14:22:00,31.9,16.3,29.86,SE,141,3.0,3.0,52,0.00,,OVC095,-99.99,VWS V12.07,2013-02-05 19:22:00,
2013-02-05 14:33:00,31.5,16.4,29.85,SSE,161,4.0,4.0,53,0.00,,OVC095,-99.99,VWS V12.07,2013-02-05 19:33:00,
2013-02-05 14:42:00,31.5,15.5,29.85,SSE,165,1.0,4.0,51,0.00,,OVC095,-99.99,VWS V12.07,2013-02-05 19:42:00,
2013-02-05 14:52:00,31.0,15.4,29.85,South,184,1.0,4.0,52,0.00,,OVC095,-99.99,VWS V12.07,2013-02-05 19:52:00,
2013-02-05 15:04:00,30.4,15.8,29.85,SSE,160,0.0,1.0,54,0.00,,OVC095,-99.99,VWS V12.07,2013-02-05 20:04:00,
2013-02-05 15:12:00,30.3,16.1,29.85,SSE,161,0.0,2.0,55,0.00,,OVC095,-99.99,VWS V12.07,2013-02-05 20:12:00,
2013-02-05 15:22:00,30.0,15.8,29.85,South,169,0.0,5.0,55,0.00,,OVC095,-99.99,VWS V12.07,2013-02-05 20:22:00,
2013-02-05 15:34:00,30.0,15.8,29.86,South,169,0.0,1.0,55,0.00,,OVC095,-99.99,VWS V12.07,2013-02-05 20:34:00,
2013-02-05 15:42:00,29.7,15.9,29.86,SE,145,2.0,2.0,56,0.00,,OVC095,-99.99,VWS V12.07,2013-02-05 20:42:00,
2013-02-05 15:52:00,29.5,15.3,29.86,SSE,148,0.0,2.0,55,0.00,,OVC095,-99.99,VWS V12.07,2013-02-05 20:52:00,
2013-02-05 16:01:00,29.4,15.7,29.85,SSE,151,0.0,1.0,56,0.00,,OVC095,-99.99,VWS V12.07,2013-02-05 21:01:00,
2013-02-05 16:12:00,29.4,16.1,29.85,SSE,151,0.0,1.0,57,0.00,,OVC095,-99.99,VWS V12.07,2013-02-05 21:12:00,
2013-02-05 16:22:00,29.4,16.1,29.84,SSE,151,0.0,1.0,57,0.00,,OVC095,-99.99,VWS V12.07,2013-02-05 21:22:00,
2013-02-05 16:33:00,29.4,16.1,29.85,SSE,151,0.0,0.0,57,0.00,,OVC095,-99.99,VWS V12.07,2013-02-05 21:33:00,
2013-02-05 16:42:00,29.4,16.1,29.85,SSE,151,0.0,2.0,57,0.00,,OVC095,-99.99,VWS V12.07,2013-02-05 21:42:00,
2013-02-05 16:52:00,29.3,16.0,29.85,SSE,151,1.0,2.0,57,0.00,,OVC095,-99.99,VWS V12.07,2013-02-05 21:52:00,
2013-02-05 17:04:00,29.3,16.4,29.84,SSE,151,1.0,1.0,58,0.00,,OVC095,-99.99,VWS V12.07,2013-02-05 22:04:00,
2013-02-05 17:12:00,29.3,16.8,29.84,SSE,151,0.0,1.0,59,0.00,,OVC095,-99.99,VWS V12.07,2013-02-05 22:12:00,
2013-02-05 17:22:00,29.1,16.6,29.84,SSE,151,0.0,1.0,59,0.00,,OVC095,-99.99,VWS V12.07,2013-02-05 22:22:00,
2013-02-05 17:33:00,29.1,17.0,29.83,SSE,151,0.0,0.0,60,0.00,,OVC095,-99.99,VWS V12.07,2013-02-05 22:33:00,
2013-02-05 17:42:00,29.1,17.3,29.83,SSE,151,0.0,1.0,61,0.00,,OVC095,-99.99,VWS V12.07,2013-02-05 22:42:00,
2013-02-05 17:52:00,29.0,19.1,29.84,SSE,155,1.0,2.0,66,0.00,,OVC095,-99.99,VWS V12.07,2013-02-05 22:52:00,
2013-02-05 18:03:00,28.7,20.2,29.84,SSE,154,0.0,2.0,70,0.00,,OVC095,-99.99,VWS V12.07,2013-02-05 23:03:00,
2013-02-05 18:11:00,28.4,21.2,29.84,SSE,147,1.0,3.0,74,0.00,,OVC095,-99.99,VWS V12.07,2013-02-05 23:11:00,
2013-02-05 18:22:00,27.9,20.7,29.84,SE,141,0.0,3.0,74,0.00,,OVC095,-99.99,VWS V12.07,2013-02-05 23:22:00,
2013-02-05 18:33:00,27.9,20.7,29.85,SE,141,0.0,0.0,74,0.00,,OVC095,-99.99,VWS V12.07,2013-02-05 23:33:00,
2013-02-05 18:42:00,27.9,20.7,29.85,SE,141,0.0,0.0,74,0.00,,OVC095,-99.99,VWS V12.07,2013-02-05 23:42:00,
2013-02-05 18:52:00,27.9,20.7,29.86,SE,141,0.0,0.0,74,0.00,,OVC095,-99.99,VWS V12.07,2013-02-05 23:52:00,
2013-02-05 19:03:00,27.9,20.7,29.86,SE,141,0.0,0.0,74,0.00,,OVC095,-99.99,VWS V12.07,2013-02-06 00:03:00,
2013-02-05 19:12:00,27.9,20.7,29.86,SE,141,0.0,0.0,74,0.00,,OVC095,-99.99,VWS V12.07,2013-02-06 00:12:00,
2013-02-05 19:22:00,27.9,20.7,29.86,SE,141,0.0,0.0,74,0.00,,OVC095,-99.99,VWS V12.07,2013-02-06 00:22:00,
2013-02-05 19:34:00,27.9,20.7,29.86,SE,141,0.0,0.0,74,0.00,,OVC095,-99.99,VWS V12.07,2013-02-06 00:34:00,
2013-02-05 19:42:00,27.9,20.7,29.86,SE,141,0.0,0.0,74,0.00,,OVC095,-99.99,VWS V12.07,2013-02-06 00:42:00,
2013-02-05 19:52:00,27.9,20.7,29.86,SE,141,0.0,0.0,74,0.00,,OVC095,-99.99,VWS V12.07,2013-02-06 00:52:00,
2013-02-05 20:03:00,27.9,20.7,29.86,SE,141,0.0,0.0,74,0.00,,OVC095,-99.99,VWS V12.07,2013-02-06 01:03:00,
2013-02-05 20:12:00,27.9,20.7,29.86,SE,141,0.0,0.0,74,0.00,,OVC095,-99.99,VWS V12.07,2013-02-06 01:12:00,
2013-02-05 20:22:00,27.9,20.7,29.86,SE,141,0.0,0.0,74,0.00,,OVC095,-99.99,VWS V12.07,2013-02-06 01:22:00,
2013-02-05 20:33:00,26.7,23.6,29.86,SSE,158,0.0,0.0,88,0.00,,OVC095,-99.99,VWS V12.07,2013-02-06 01:33:00,
2013-02-05 20:42:00,26.7,23.6,29.86,SSE,158,0.0,0.0,88,0.00,,OVC095,-99.99,VWS V12.07,2013-02-06 01:42:00,
2013-02-05 20:52:00,26.7,23.6,29.86,SSE,158,0.0,0.0,88,0.00,,OVC095,-99.99,VWS V12.07,2013-02-06 01:52:00,
2013-02-05 21:03:00,26.9,23.8,29.86,SSE,158,0.0,0.0,88,0.00,,OVC095,-99.99,VWS V12.07,2013-02-06 02:03:00,
2013-02-05 21:12:00,26.9,23.8,29.86,SSE,158,0.0,0.0,88,0.00,,OVC095,-99.99,VWS V12.07,2013-02-06 02:12:00,
2013-02-05 21:22:00,26.9,23.8,29.86,SSE,158,0.0,0.0,88,0.00,,OVC095,-99.99,VWS V12.07,2013-02-06 02:22:00,
2013-02-05 21:33:00,26.9,24.1,29.86,SSE,158,0.0,0.0,89,0.00,,OVC095,-99.99,VWS V12.07,2013-02-06 02:33:00,
2013-02-05 21:42:00,26.9,24.1,29.86,SSE,158,0.0,0.0,89,0.00,,OVC095,-99.99,VWS V12.07,2013-02-06 02:42:00,
2013-02-05 21:52:00,26.9,24.1,29.86,SSE,158,0.0,0.0,89,0.00,,OVC095,-99.99,VWS V12.07,2013-02-06 02:52:00,
2013-02-05 22:04:00,26.9,24.1,29.86,SSE,158,0.0,0.0,89,0.00,,OVC095,-99.99,VWS V12.07,2013-02-06 03:04:00,
2013-02-05 22:12:00,26.9,24.4,29.86,SSE,158,0.0,0.0,90,0.00,,OVC095,-99.99,VWS V12.07,2013-02-06 03:12:00,
2013-02-05 22:22:00,27.0,24.5,29.86,SSE,158,0.0,0.0,90,0.00,,OVC095,-99.99,VWS V12.07,2013-02-06 03:22:00,
2013-02-05 22:33:00,27.0,24.5,29.86,SSE,158,0.0,0.0,90,0.00,,OVC095,-99.99,VWS V12.07,2013-02-06 03:33:00,
2013-02-05 22:42:00,27.2,24.7,29.86,SSE,158,0.0,0.0,90,0.00,,OVC095,-99.99,VWS V12.07,2013-02-06 03:42:00,
2013-02-05 22:52:00,27.2,24.7,29.86,SSE,158,0.0,0.0,90,0.00,,OVC095,-99.99,VWS V12.07,2013-02-06 03:52:00,
2013-02-05 23:04:00,27.2,24.7,29.84,SSE,158,0.0,0.0,90,0.00,,OVC095,-99.99,VWS V12.07,2013-02-06 04:04:00,
2013-02-05 23:12:00,27.2,24.7,29.84,SSE,158,0.0,0.0,90,0.00,,OVC095,-99.99,VWS V12.07,2013-02-06 04:12:00,
2013-02-05 23:22:00,27.2,24.7,29.86,SSE,158,0.0,0.0,90,0.00,,OVC095,-99.99,VWS V12.07,2013-02-06 04:22:00,
2013-02-05 23:33:00,27.2,24.7,29.86,SSE,158,0.0,0.0,90,0.00,,OVC095,-99.99,VWS V12.07,2013-02-06 04:33:00,
2013-02-05 23:42:00,27.2,24.7,29.86,SSE,158,0.0,0.0,90,0.00,,OVC095,-99.99,VWS V12.07,2013-02-06 04:42:00,
2013-02-05 23:52:00,27.2,24.7,29.86,SSE,158,0.0,0.0,90,0.00,,OVC095,-99.99,VWS V12.07,2013-02-06 04:52:00,